Time;durP1;ratioP1;P1;durP2;ratioP2;P2;SDS_P1;SDS_P2;PMS_P1;PMS_P2;Temp;Humidity;BMP_temperature;BMP_pressure;BME280_temperature;BME280_humidity;BME280_pressure;Samples;Min_cycle;Max_cycle;Signal;HPM_P1;HPM_P2
2022/06/23 00:00:17;;;;;;;6.50;3.53;;;;;;;14.80;86.71;99707.19;4212250;28;20477;-67
2022/06/23 00:02:44;;;;;;;6.50;3.37;;;;;;;14.72;87.13;99705.47;4222596;28;20300;-66
2022/06/23 00:05:16;;;;;;;6.03;3.27;;;;;;;14.70;87.16;99707.50;4217992;28;21818;-67
2022/06/23 00:07:46;;;;;;;12.43;3.77;;;;;;;14.58;88.77;99707.16;4223413;28;20243;-67
2022/06/23 00:10:15;;;;;;;5.93;3.80;;;;;;;14.67;88.38;99706.03;4192567;28;20295;-66
2022/06/23 00:12:42;;;;;;;8.10;4.00;;;;;;;14.59;88.64;99700.81;4222507;28;20260;-65
2022/06/23 00:15:09;;;;;;;8.07;3.60;;;;;;;14.65;88.50;99708.06;4222066;28;20239;-65
2022/06/23 00:17:42;;;;;;;5.30;3.30;;;;;;;14.68;88.52;99706.84;4214092;28;20232;-66
2022/06/23 00:20:19;;;;;;;6.63;3.83;;;;;;;14.57;89.16;99709.00;4223608;28;21651;-67
2022/06/23 00:22:51;;;;;;;12.20;4.20;;;;;;;14.69;88.68;99705.84;4235552;28;21442;-67
2022/06/23 00:25:31;;;;;;;8.77;3.80;;;;;;;14.73;88.09;99702.59;4211773;28;20984;-67
2022/06/23 00:27:59;;;;;;;9.43;4.03;;;;;;;14.71;88.49;99710.00;4220792;28;20585;-66
2022/06/23 00:30:37;;;;;;;6.73;3.57;;;;;;;14.81;88.09;99708.84;4197534;28;20250;-66
2022/06/23 00:33:07;;;;;;;6.07;3.73;;;;;;;14.85;87.51;99710.13;4219996;28;20257;-68
2022/06/23 00:35:34;;;;;;;6.90;3.90;;;;;;;14.86;87.89;99717.13;4202548;28;21686;-66
2022/06/23 00:38:01;;;;;;;7.03;3.67;;;;;;;14.84;87.47;99720.00;4222428;28;20243;-66
2022/06/23 00:40:27;;;;;;;6.40;3.77;;;;;;;14.79;87.97;99717.06;4216175;28;20263;-66
2022/06/23 00:43:01;;;;;;;12.03;4.00;;;;;;;14.81;87.98;99725.75;4218570;28;20258;-65
2022/06/23 00:45:35;;;;;;;8.33;3.73;;;;;;;14.85;87.85;99728.88;4208758;28;21201;-66
2022/06/23 00:48:13;;;;;;;7.40;4.20;;;;;;;14.86;87.73;99727.84;4213609;28;20515;-67
2022/06/23 00:51:02;;;;;;;6.13;3.80;;;;;;;14.89;87.93;99727.47;4222621;28;20232;-66
2022/06/23 00:53:44;;;;;;;7.60;3.63;;;;;;;14.88;87.36;99729.31;4222272;28;20639;-67
2022/06/23 00:56:33;;;;;;;9.80;4.53;;;;;;;14.90;87.84;99723.78;4216494;28;20322;-65
2022/06/23 00:59:06;;;;;;;8.17;3.53;;;;;;;14.94;87.26;99722.41;4191388;28;20604;-64
2022/06/23 01:01:57;;;;;;;6.37;3.70;;;;;;;14.91;87.42;99725.44;4220636;28;21878;-66
2022/06/23 01:04:35;;;;;;;10.37;3.97;;;;;;;14.91;87.16;99725.44;4211267;28;20236;-67
2022/06/23 01:07:45;;;;;;;11.53;3.80;;;;;;;14.90;87.18;99723.78;4213635;28;20295;-65
2022/06/23 01:10:24;;;;;;;9.83;4.00;;;;;;;14.86;87.59;99720.66;4198077;28;20236;-67
2022/06/23 01:13:07;;;;;;;7.80;3.90;;;;;;;14.88;87.71;99721.28;4209701;28;21657;-65
2022/06/23 01:16:00;;;;;;;8.73;3.97;;;;;;;14.82;88.03;99714.03;4210683;28;20307;-65
2022/06/23 01:18:32;;;;;;;9.80;3.70;;;;;;;14.87;87.47;99716.13;4225725;28;20276;-65
2022/06/23 01:21:04;;;;;;;6.70;3.40;;;;;;;14.84;87.77;99719.19;4217414;28;20251;-66
2022/06/23 01:23:40;;;;;;;8.50;3.80;;;;;;;14.82;88.04;99724.75;4209513;28;20300;-67
2022/06/23 01:26:25;;;;;;;6.70;3.60;;;;;;;14.83;88.19;99721.03;4196025;28;20334;-68
2022/06/23 01:28:59;;;;;;;8.23;4.07;;;;;;;14.76;88.30;99725.50;4197203;28;20244;-67
2022/06/23 01:31:39;;;;;;;8.37;3.73;;;;;;;14.70;88.28;99735.13;4205005;28;21399;-67
2022/06/23 01:34:30;;;;;;;11.00;3.97;;;;;;;14.58;89.61;99733.94;4199904;28;20239;-67
2022/06/23 01:37:01;;;;;;;11.93;4.67;;;;;;;14.69;88.95;99736.13;4211616;28;20228;-66
2022/06/23 01:39:52;;;;;;;7.10;4.07;;;;;;;14.68;89.34;99744.34;4206399;28;20291;-66
2022/06/23 01:42:45;;;;;;;10.33;3.80;;;;;;;14.68;89.26;99736.31;4209916;28;21020;-68
2022/06/23 01:45:30;;;;;;;8.27;4.00;;;;;;;14.57;89.45;99741.16;4210551;28;20456;-66
2022/06/23 01:48:51;;;;;;;6.73;3.90;;;;;;;14.49;90.26;99741.25;4215047;28;21626;-67
2022/06/23 01:51:18;;;;;;;9.73;4.27;;;;;;;14.49;90.26;99740.38;4207172;28;20611;-66
2022/06/23 01:53:45;;;;;;;6.17;4.10;;;;;;;14.47;90.39;99742.41;4210525;28;25775;-67
2022/06/23 01:56:20;;;;;;;7.43;4.20;;;;;;;14.43;90.88;99738.47;4209451;28;20239;-66
2022/06/23 01:59:01;;;;;;;8.37;3.93;;;;;;;14.42;91.22;99742.16;4223876;28;20223;-68
2022/06/23 02:01:30;;;;;;;8.20;4.20;;;;;;;14.32;91.77;99742.44;4199493;28;20635;-66
2022/06/23 02:04:02;;;;;;;6.53;3.93;;;;;;;14.32;91.74;99739.78;4218440;28;20406;-67
2022/06/23 02:06:39;;;;;;;10.20;4.47;;;;;;;14.31;91.93;99738.94;4211743;28;20228;-67
2022/06/23 02:09:14;;;;;;;9.23;4.30;;;;;;;14.24;92.35;99739.88;4218443;28;20298;-67
2022/06/23 02:11:49;;;;;;;9.20;4.03;;;;;;;14.32;92.37;99742.44;4216024;28;20239;-67
2022/06/23 02:14:40;;;;;;;11.73;4.07;;;;;;;14.29;92.51;99740.16;4216391;28;20247;-68
2022/06/23 02:17:11;;;;;;;10.43;4.90;;;;;;;14.20;92.79;99743.94;4216090;28;20230;-67
2022/06/23 02:19:48;;;;;;;8.77;4.23;;;;;;;14.18;92.83;99741.44;4202546;28;20563;-67
2022/06/23 02:22:36;;;;;;;14.17;5.03;;;;;;;14.11;93.33;99740.53;4207743;28;20224;-67
2022/06/23 02:25:05;;;;;;;11.63;4.50;;;;;;;14.18;93.30;99746.78;4230653;28;20291;-65
2022/06/23 02:27:46;;;;;;;9.43;4.30;;;;;;;14.19;93.31;99752.97;4216573;28;20241;-66
2022/06/23 02:30:30;;;;;;;10.43;4.47;;;;;;;14.19;93.56;99751.16;4214956;28;20227;-67
2022/06/23 02:33:19;;;;;;;10.37;4.73;;;;;;;14.08;93.94;99747.06;4204195;28;20244;-65
2022/06/23 02:36:02;;;;;;;14.63;5.30;;;;;;;14.13;93.76;99752.69;4230368;28;25803;-67
2022/06/23 02:38:49;;;;;;;16.03;4.90;;;;;;;14.08;94.28;99751.59;4218587;28;21670;-66
2022/06/23 02:41:23;;;;;;;14.70;4.50;;;;;;;14.04;94.48;99750.31;4208443;28;20643;-68
2022/06/23 02:43:52;;;;;;;15.37;4.67;;;;;;;14.03;94.88;99754.00;4252800;28;21884;-66
2022/06/23 02:46:42;;;;;;;10.57;5.20;;;;;;;14.00;95.18;99757.03;4226710;28;20224;-67
2022/06/23 02:49:20;;;;;;;10.30;4.80;;;;;;;14.08;94.85;99763.13;4225498;28;21331;-67
2022/06/23 02:52:06;;;;;;;15.63;5.27;;;;;;;14.01;95.53;99766.72;4232841;28;20463;-67
2022/06/23 02:54:43;;;;;;;15.00;5.03;;;;;;;14.01;95.77;99766.72;4220538;28;20231;-66
2022/06/23 02:57:34;;;;;;;12.00;4.80;;;;;;;14.10;95.51;99765.63;4205332;28;20302;-66
2022/06/23 03:00:17;;;;;;;8.93;4.77;;;;;;;14.12;95.47;99775.13;4231355;28;21339;-67
2022/06/23 03:03:05;;;;;;;14.93;4.90;;;;;;;14.18;95.58;99773.56;4235070;28;20228;-66
2022/06/23 03:05:49;;;;;;;9.90;4.67;;;;;;;14.20;95.89;99776.88;4220315;28;22668;-67
2022/06/23 03:08:51;;;;;;;12.73;4.90;;;;;;;14.22;95.98;99777.53;4229300;28;20350;-65
2022/06/23 03:11:54;;;;;;;10.63;5.00;;;;;;;14.23;96.16;99781.84;4220630;28;20658;-67
2022/06/23 03:14:33;;;;;;;9.20;4.57;;;;;;;14.34;95.61;99776.03;4200152;28;20243;-68
2022/06/23 03:17:19;;;;;;;12.20;4.90;;;;;;;14.35;95.99;99779.53;4235003;28;20268;-67
2022/06/23 03:20:14;;;;;;;13.20;5.30;;;;;;;14.47;95.45;99783.44;4219337;28;20247;-65
2022/06/23 03:23:01;;;;;;;13.17;4.80;;;;;;;14.59;95.09;99785.66;4195641;28;20229;-67
2022/06/23 03:25:39;;;;;;;13.23;4.70;;;;;;;14.66;94.51;99803.47;4227494;28;20631;-66
2022/06/23 03:28:45;;;;;;;10.87;4.90;;;;;;;14.66;94.77;99798.09;4205813;28;20692;-66
2022/06/23 03:31:18;;;;;;;11.07;4.93;;;;;;;14.81;94.13;99794.56;4184809;28;20374;-67
2022/06/23 03:33:53;;;;;;;11.03;4.90;;;;;;;14.85;94.00;99799.34;4211156;28;20244;-66
2022/06/23 03:36:44;;;;;;;8.93;4.13;;;;;;;14.94;93.63;99795.56;4199070;28;22225;-66
2022/06/23 03:42:25;;;;;;;11.17;5.40;;;;;;;15.07;92.88;99797.53;4214365;28;20551;-66
2022/06/23 03:45:16;;;;;;;10.50;4.70;;;;;;;15.17;92.27;99798.06;4211649;28;20262;-68
2022/06/23 03:47:47;;;;;;;9.30;4.70;;;;;;;15.29;92.10;99802.91;4215480;28;21353;-66
2022/06/23 03:50:18;;;;;;;10.60;4.70;;;;;;;15.43;90.69;99804.72;4215535;28;23378;-66
2022/06/23 03:52:48;;;;;;;9.27;4.83;;;;;;;15.57;90.00;99806.50;4213393;28;20232;-66
2022/06/23 03:55:37;;;;;;;13.20;4.53;;;;;;;15.59;88.63;99811.63;4204969;28;22072;-67
2022/06/23 03:58:33;;;;;;;16.60;5.93;;;;;;;15.58;87.75;99812.69;4225869;28;20240;-68
2022/06/23 04:01:03;;;;;;;13.47;5.30;;;;;;;15.70;86.24;99815.66;4224958;28;21696;-67
2022/06/23 04:03:45;;;;;;;9.30;5.00;;;;;;;15.87;86.06;99817.06;4199941;28;20612;-66
2022/06/23 04:06:21;;;;;;;9.60;4.23;;;;;;;16.21;85.65;99823.50;4215061;28;20235;-68
2022/06/23 04:09:08;;;;;;;12.97;4.90;;;;;;;16.28;85.17;99823.56;4204975;28;20287;-67
2022/06/23 04:11:57;;;;;;;11.70;4.53;;;;;;;16.29;83.74;99825.19;4234786;28;20235;-66
2022/06/23 04:14:32;;;;;;;10.63;4.50;;;;;;;16.37;82.66;99833.94;4213800;28;21186;-66
2022/06/23 04:17:14;;;;;;;9.23;4.30;;;;;;;16.63;82.30;99845.84;4215637;28;20320;-66
2022/06/23 04:19:44;;;;;;;10.13;4.23;;;;;;;16.92;80.95;99841.25;4212737;28;20236;-68
2022/06/23 04:22:16;;;;;;;8.00;4.07;;;;;;;17.19;79.74;99848.38;4216504;28;22592;-67
2022/06/23 04:24:45;;;;;;;7.63;3.83;;;;;;;17.51;78.73;99841.41;4209171;28;20282;-67
2022/06/23 04:27:20;;;;;;;10.47;4.13;;;;;;;17.54;75.81;99840.19;4202314;28;20283;-66
2022/06/23 04:29:50;;;;;;;13.43;4.37;;;;;;;17.56;75.24;99865.03;4201175;28;21205;-66
2022/06/23 04:32:23;;;;;;;12.17;5.13;;;;;;;17.65;75.98;99855.72;4200371;28;20262;-67
2022/06/23 04:35:06;;;;;;;8.90;4.40;;;;;;;17.82;75.19;99861.56;4201853;28;21472;-68
2022/06/23 04:37:55;;;;;;;8.50;4.20;;;;;;;18.01;74.34;99878.75;4198653;28;20608;-66
2022/06/23 04:40:42;;;;;;;7.77;3.80;;;;;;;18.17;73.33;99872.13;4203490;28;22341;-67
2022/06/23 04:43:22;;;;;;;9.30;4.07;;;;;;;18.30;72.50;99874.78;4216355;28;20240;-67
2022/06/23 04:45:55;;;;;;;8.47;4.10;;;;;;;18.27;72.25;99882.47;4206420;28;20246;-70
2022/06/23 04:48:47;;;;;;;10.93;4.73;;;;;;;18.34;72.66;99888.66;4224388;28;20416;-66
2022/06/23 04:51:31;;;;;;;9.40;4.20;;;;;;;18.32;72.41;99888.03;4234524;28;20232;-68
2022/06/23 04:54:11;;;;;;;11.10;3.90;;;;;;;18.42;70.98;99888.44;4213821;28;20235;-67
2022/06/23 04:56:39;;;;;;;9.97;3.80;;;;;;;18.53;70.62;99898.56;4206245;28;20239;-66
2022/06/23 04:59:19;;;;;;;9.23;3.37;;;;;;;18.69;70.29;99899.19;4214038;28;20240;-66
2022/06/23 05:01:48;;;;;;;8.60;3.70;;;;;;;18.72;70.29;99901.44;4214071;28;20252;-66
2022/06/23 05:04:21;;;;;;;8.17;3.73;;;;;;;18.81;70.35;99904.78;4210890;28;21709;-67
2022/06/23 05:06:51;;;;;;;12.13;3.77;;;;;;;18.85;69.68;99916.78;4209607;28;20246;-67
2022/06/23 05:09:26;;;;;;;10.27;3.80;;;;;;;18.95;68.80;99915.28;4196987;28;20889;-67
2022/06/23 05:11:56;;;;;;;11.53;3.40;;;;;;;19.07;67.09;99925.41;4199961;28;20287;-66
2022/06/23 05:14:35;;;;;;;11.73;3.43;;;;;;;19.24;66.01;99923.06;4192512;28;20300;-66
2022/06/23 05:17:06;;;;;;;5.90;2.97;;;;;;;19.45;64.88;99932.72;4198637;28;20249;-67
2022/06/23 05:19:36;;;;;;;9.17;3.40;;;;;;;19.49;63.49;99920.47;4193905;28;20259;-67
2022/06/23 05:22:17;;;;;;;5.20;2.70;;;;;;;20.06;61.78;99931.31;4212545;28;20244;-66
2022/06/23 05:24:45;;;;;;;8.30;3.13;;;;;;;20.12;59.58;99947.50;4203155;28;20312;-67
2022/06/23 05:27:23;;;;;;;8.90;2.83;;;;;;;20.42;56.87;99939.56;4214169;28;20251;-68
2022/06/23 05:30:06;;;;;;;12.07;2.60;;;;;;;20.72;55.65;99943.44;4219913;28;20242;-66
2022/06/23 05:32:56;;;;;;;8.20;2.70;;;;;;;21.00;55.79;99949.19;4241255;28;21823;-66
2022/06/23 05:35:44;;;;;;;8.57;2.63;;;;;;;21.31;55.82;99958.19;4206410;28;21749;-67
2022/06/23 05:38:48;;;;;;;7.37;2.60;;;;;;;21.96;53.41;99962.97;4197466;28;20233;-68
2022/06/23 05:41:32;;;;;;;9.60;2.80;;;;;;;22.37;51.21;99968.63;4233053;28;20239;-66
2022/06/23 05:43:59;;;;;;;5.93;2.47;;;;;;;22.93;48.60;99965.31;4233033;28;20397;-67
2022/06/23 05:46:27;;;;;;;6.70;2.33;;;;;;;23.20;47.11;99970.22;4221828;28;20667;-70
2022/06/23 05:49:00;;;;;;;7.53;2.60;;;;;;;23.76;45.88;99973.25;4217147;28;22312;-68
2022/06/23 05:51:59;;;;;;;8.83;2.47;;;;;;;24.60;44.17;99973.34;4208567;28;20435;-68
2022/06/23 05:54:49;;;;;;;5.47;2.33;;;;;;;25.09;43.16;99977.31;4201946;28;20228;-67
2022/06/23 05:57:25;;;;;;;12.03;3.07;;;;;;;25.80;41.00;99985.53;4210850;28;22172;-68
2022/06/23 05:59:58;;;;;;;6.80;2.47;;;;;;;25.82;40.56;99988.81;4227175;28;20274;-68
2022/06/23 06:02:45;;;;;;;7.83;2.73;;;;;;;26.28;39.15;100000.22;4220054;28;21899;-67
2022/06/23 06:05:30;;;;;;;8.03;2.50;;;;;;;27.22;37.91;100006.91;4215315;28;20993;-68
2022/06/23 06:07:56;;;;;;;5.00;2.23;;;;;;;27.31;37.26;100008.03;4208098;28;20596;-67
2022/06/23 06:10:26;;;;;;;6.53;2.20;;;;;;;27.39;36.90;100008.63;4217345;28;20537;-67
2022/06/23 06:12:53;;;;;;;12.50;2.50;;;;;;;27.95;35.99;100011.53;4210679;28;20726;-68
2022/06/23 06:15:26;;;;;;;7.53;2.83;;;;;;;28.08;35.78;100016.50;4221630;28;22054;-68
2022/06/23 06:18:05;;;;;;;6.23;2.23;;;;;;;28.66;33.83;100026.38;4218835;28;20229;-68
2022/06/23 06:20:32;;;;;;;6.73;2.50;;;;;;;29.42;33.49;100023.50;4203620;28;20269;-67
2022/06/23 06:23:21;;;;;;;6.40;2.47;;;;;;;30.49;30.05;100043.22;4209765;28;20239;-68
2022/06/23 06:25:49;;;;;;;6.30;2.53;;;;;;;30.95;28.70;100039.25;4215022;28;20241;-68
2022/06/23 06:28:20;;;;;;;9.77;2.50;;;;;;;31.47;28.12;100041.16;4230173;28;20271;-68
2022/06/23 06:31:15;;;;;;;7.75;2.60;;;;;;;30.60;29.25;100031.03;4223692;28;21261;-68
2022/06/23 06:33:51;;;;;;;7.18;2.33;;;;;;;31.37;28.33;100046.75;4230357;28;20235;-67
2022/06/23 06:36:26;;;;;;;7.05;2.50;;;;;;;31.52;27.38;100060.34;4214023;28;20235;-68
2022/06/23 06:39:00;;;;;;;11.45;2.50;;;;;;;32.60;25.58;100056.09;4223020;28;20261;-68
2022/06/23 06:41:27;;;;;;;5.45;2.30;;;;;;;32.25;25.91;100058.28;4232320;28;20617;-71
2022/06/23 06:43:54;;;;;;;5.40;2.13;;;;;;;31.75;26.66;100053.19;4219975;28;20228;-75
2022/06/23 06:46:20;;;;;;;9.00;2.40;;;;;;;31.92;26.21;100049.09;4212852;28;20450;-68
2022/06/23 06:48:47;;;;;;;4.43;1.88;;;;;;;32.78;25.17;100060.75;4241371;28;22005;-71
2022/06/23 06:51:19;;;;;;;6.57;2.10;;;;;;;33.60;24.62;100067.50;4231050;28;21878;-71
2022/06/23 06:53:52;;;;;;;5.43;2.17;;;;;;;34.45;23.70;100078.84;4199332;28;20791;-70
2022/06/23 06:56:36;;;;;;;9.05;1.80;;;;;;;35.23;22.22;100078.53;4196661;28;22424;-73
2022/06/23 06:59:15;;;;;;;8.18;2.00;;;;;;;35.48;21.80;100078.97;4213597;28;20317;-71
2022/06/23 07:01:43;;;;;;;5.60;2.08;;;;;;;34.19;22.14;100080.59;4214350;28;26100;-71
2022/06/23 07:04:15;;;;;;;6.20;2.17;;;;;;;33.93;23.49;100075.63;4212922;28;20617;-74
2022/06/23 07:06:45;;;;;;;8.18;2.13;;;;;;;33.27;23.95;100066.75;4212681;28;20237;-75
2022/06/23 07:09:23;;;;;;;6.93;2.05;;;;;;;32.82;23.52;100060.13;4218002;28;22544;-71
2022/06/23 07:11:53;;;;;;;6.13;2.20;;;;;;;33.74;23.01;100066.63;4219344;28;21239;-75
2022/06/23 07:14:27;;;;;;;5.03;1.85;;;;;;;33.70;22.84;100074.75;4219075;28;20484;-74
2022/06/23 07:17:15;;;;;;;9.85;2.10;;;;;;;32.42;24.77;100067.94;4204856;28;20824;-66
2022/06/23 07:19:47;;;;;;;6.13;2.25;;;;;;;32.45;25.04;100072.81;4204501;28;20275;-69
2022/06/23 07:22:27;;;;;;;5.63;2.13;;;;;;;31.80;23.80;100068.81;4194338;28;22257;-68
2022/06/23 07:25:00;;;;;;;4.75;2.22;;;;;;;31.12;26.08;100062.44;4222567;28;25868;-74
2022/06/23 07:27:44;;;;;;;8.32;2.15;;;;;;;31.03;25.81;100060.63;4213862;28;20232;-72
2022/06/23 07:30:23;;;;;;;7.33;2.30;;;;;;;29.37;28.62;100050.13;4210420;28;20254;-72
2022/06/23 07:33:34;;;;;;;4.30;1.88;;;;;;;29.36;28.71;100056.69;4258282;28;20325;-72
2022/06/23 07:36:06;;;;;;;4.60;1.95;;;;;;;28.37;29.08;100048.81;4230241;28;20236;-69
2022/06/23 07:38:38;;;;;;;4.80;1.80;;;;;;;28.06;29.70;100046.03;4226596;28;20282;-74
2022/06/23 07:41:18;;;;;;;6.17;1.77;;;;;;;27.27;30.69;100050.63;4223998;28;20938;-70
2022/06/23 07:44:11;;;;;;;5.50;2.00;;;;;;;27.03;32.84;100041.19;4215307;28;20711;-69
2022/06/23 07:46:42;;;;;;;5.50;2.10;;;;;;;27.69;32.19;100047.00;4244622;28;22333;-73
2022/06/23 07:49:09;;;;;;;5.67;2.40;;;;;;;27.53;31.59;100045.28;4229400;28;20314;-72
2022/06/23 07:51:36;;;;;;;4.80;1.93;;;;;;;27.01;30.56;100041.44;4222529;28;20277;-71
2022/06/23 07:54:06;;;;;;;6.03;2.20;;;;;;;26.33;32.85;100049.34;4221087;28;20237;-71
2022/06/23 07:56:34;;;;;;;7.73;2.27;;;;;;;25.78;34.36;100047.66;4230488;28;20286;-70
2022/06/23 07:59:18;;;;;;;6.00;1.70;;;;;;;25.62;35.98;100033.84;4218835;28;22485;-65
2022/06/23 08:01:56;;;;;;;4.47;2.37;;;;;;;25.28;36.43;100028.50;4223857;28;20291;-65
2022/06/23 08:04:31;;;;;;;7.07;2.33;;;;;;;25.11;37.01;100033.16;4191629;28;20426;-65
2022/06/23 08:07:02;;;;;;;6.40;2.50;;;;;;;25.31;36.71;100032.66;4234985;28;20238;-65
2022/06/23 08:09:32;;;;;;;7.70;2.20;;;;;;;25.84;35.83;100024.81;4230795;28;21120;-65
2022/06/23 08:18:10;;;;;;;6.60;2.03;;;;;;;27.20;34.23;100030.09;4267105;28;20308;-66
2022/06/23 08:20:42;;;;;;;4.33;2.13;;;;;;;27.51;32.58;100025.59;4259014;28;20232;-65
2022/06/23 08:23:09;;;;;;;7.40;1.97;;;;;;;27.16;33.41;100033.34;4231782;28;20251;-65
2022/06/23 08:25:36;;;;;;;7.10;2.23;;;;;;;25.98;35.35;100034.28;4216692;28;20695;-65
2022/06/23 08:28:04;;;;;;;3.70;1.60;;;;;;;25.48;36.41;100021.69;4206992;28;20240;-64
2022/06/23 08:30:36;;;;;;;3.00;1.93;;;;;;;25.23;37.66;100017.56;4238027;28;20239;-65
2022/06/23 08:33:03;;;;;;;5.90;2.10;;;;;;;25.28;37.76;100022.25;4240913;28;20246;-67
2022/06/23 08:35:43;;;;;;;4.43;2.07;;;;;;;25.30;36.98;100024.72;4214207;28;20345;-64
2022/06/23 08:38:21;;;;;;;8.07;2.00;;;;;;;25.88;34.23;100031.47;4233676;28;23129;-66
2022/06/23 08:41:06;;;;;;;5.83;2.10;;;;;;;26.01;34.30;100035.66;4206406;28;20233;-68
2022/06/23 08:43:48;;;;;;;6.47;2.20;;;;;;;26.03;33.95;100039.78;4217071;28;20306;-67
2022/06/23 08:46:40;;;;;;;4.13;1.60;;;;;;;25.83;34.47;100036.81;4211310;28;20247;-69
2022/06/23 08:49:18;;;;;;;3.47;2.23;;;;;;;25.69;34.82;100039.13;4206261;28;20375;-67
2022/06/23 08:51:49;;;;;;;7.30;1.90;;;;;;;25.57;34.58;100039.25;4223922;28;21264;-67
2022/06/23 08:54:32;;;;;;;4.87;2.03;;;;;;;24.77;35.43;100027.78;4221754;28;20240;-68
2022/06/23 08:57:19;;;;;;;5.20;2.20;;;;;;;24.80;35.33;100031.91;4208131;28;20243;-69
2022/06/23 09:00:10;;;;;;;3.43;1.80;;;;;;;25.56;34.12;100029.41;4228937;28;20239;-66
2022/06/23 09:02:39;;;;;;;5.30;2.20;;;;;;;26.11;34.31;100033.06;4198557;28;20519;-65
2022/06/23 09:05:44;;;;;;;6.93;1.93;;;;;;;26.13;32.42;100043.69;4232822;28;20640;-68
2022/06/23 09:08:23;;;;;;;5.47;2.00;;;;;;;25.69;35.02;100030.94;4213432;28;20236;-65
2022/06/23 09:11:24;;;;;;;3.53;1.83;;;;;;;25.64;36.35;100034.44;4193229;28;20332;-69
2022/06/23 09:14:28;;;;;;;3.47;1.57;;;;;;;25.85;36.06;100026.50;4216281;28;20319;-70
2022/06/23 09:17:05;;;;;;;3.93;1.67;;;;;;;24.95;37.93;100023.13;4217405;28;20700;-65
2022/06/23 09:19:47;;;;;;;5.77;2.20;;;;;;;24.95;36.73;100025.84;4209710;28;20236;-65
2022/06/23 09:22:42;;;;;;;5.83;1.90;;;;;;;24.92;35.76;100029.09;4198896;28;20236;-66
2022/06/23 09:25:25;;;;;;;8.93;2.20;;;;;;;25.03;36.44;100036.34;4220766;28;20318;-66
2022/06/23 09:28:15;;;;;;;4.70;1.70;;;;;;;25.35;33.98;100035.69;4203725;28;20294;-65
2022/06/23 09:30:56;;;;;;;3.00;1.67;;;;;;;25.65;33.40;100041.50;4201567;28;22219;-69
2022/06/23 09:33:47;;;;;;;2.40;1.53;;;;;;;25.88;33.10;100053.28;4216998;28;20519;-70
2022/06/23 09:36:39;;;;;;;5.87;2.20;;;;;;;25.75;33.60;100049.00;4205311;28;20242;-72
2022/06/23 09:39:27;;;;;;;4.57;1.73;;;;;;;25.20;34.46;100047.22;4208454;28;20297;-70
2022/06/23 09:42:29;;;;;;;3.20;1.47;;;;;;;25.22;33.63;100051.34;4209884;28;20248;-71
2022/06/23 09:45:14;;;;;;;2.90;1.80;;;;;;;25.28;33.47;100050.31;4221715;28;22297;-71
2022/06/23 09:47:46;;;;;;;5.93;1.87;;;;;;;25.65;33.67;100049.69;4222718;28;20349;-68
2022/06/23 09:50:17;;;;;;;6.67;2.10;;;;;;;25.68;34.70;100046.47;4214353;28;20603;-77
2022/06/23 09:53:20;;;;;;;5.97;1.83;;;;;;;25.32;35.16;100049.81;4215675;28;20306;-72
2022/06/23 09:55:49;;;;;;;8.10;1.87;;;;;;;25.25;35.16;100042.66;4201425;28;20234;-70
2022/06/23 09:58:52;;;;;;;4.30;1.60;;;;;;;24.83;35.54;100040.38;4214908;28;20413;-69
2022/06/23 10:01:31;;;;;;;5.87;2.27;;;;;;;24.36;35.90;100042.59;4205506;28;20364;-68
2022/06/23 10:04:25;;;;;;;5.17;1.90;;;;;;;24.37;35.84;100039.63;4228707;28;20415;-68
2022/06/23 10:07:07;;;;;;;4.03;1.80;;;;;;;24.39;37.26;100034.72;4193215;28;20249;-48
2022/06/23 10:09:43;;;;;;;3.20;1.60;;;;;;;24.56;35.70;100034.81;4217155;28;20386;-48
2022/06/23 10:12:24;;;;;;;7.33;1.97;;;;;;;24.92;34.96;100032.63;4226197;28;20236;-51
2022/06/23 10:15:12;;;;;;;3.40;2.00;;;;;;;24.90;34.32;100039.41;4203736;28;20247;-52
2022/06/23 10:17:49;;;;;;;5.87;1.73;;;;;;;24.99;36.03;100041.44;4229898;28;20303;-47
2022/06/23 10:20:34;;;;;;;4.90;2.20;;;;;;;25.12;36.73;100040.25;4206853;28;20331;-47
2022/06/23 10:23:04;;;;;;;7.90;1.90;;;;;;;24.86;36.64;100036.34;4216764;28;20337;-47
2022/06/23 10:25:45;;;;;;;6.20;2.03;;;;;;;24.74;36.88;100041.88;4217049;28;20278;-44
2022/06/23 10:28:52;;;;;;;6.87;2.17;;;;;;;24.60;37.44;100040.56;4205567;28;20239;-48
2022/06/23 10:31:39;;;;;;;4.83;1.83;;;;;;;24.98;37.39;100044.41;4219129;28;22575;-44
2022/06/23 10:34:14;;;;;;;5.33;2.10;;;;;;;25.37;35.66;100042.53;4220326;28;23009;-46
2022/06/23 10:37:07;;;;;;;6.47;2.00;;;;;;;25.63;35.26;100045.56;4234598;28;20792;-52
2022/06/23 10:40:05;;;;;;;3.50;1.90;;;;;;;25.79;33.08;100060.22;4207657;28;20241;-52
2022/06/23 10:43:13;;;;;;;7.53;1.93;;;;;;;25.83;31.34;100062.19;4239535;28;25554;-50
2022/06/23 10:45:50;;;;;;;4.50;1.73;;;;;;;25.15;33.47;100047.94;4205328;28;20278;-48
2022/06/23 10:49:01;;;;;;;4.60;1.80;;;;;;;25.28;34.16;100047.59;4230450;28;20478;-66
2022/06/23 10:51:41;;;;;;;8.10;2.20;;;;;;;25.29;34.19;100040.25;4143703;29;21132;-65
2022/06/23 10:54:16;;;;;;;3.97;1.50;;;;;;;25.40;34.35;100039.31;4216060;28;20225;-68
2022/06/23 10:56:49;;;;;;;5.70;1.80;;;;;;;25.22;34.04;100048.59;4224155;28;20299;-69
2022/06/23 10:59:28;;;;;;;4.53;1.50;;;;;;;25.12;34.47;100047.59;4215717;28;20241;-75
2022/06/23 11:02:14;;;;;;;7.57;2.00;;;;;;;25.05;35.73;100045.91;4210284;28;20310;-69
2022/06/23 11:04:59;;;;;;;2.87;2.07;;;;;;;25.09;35.70;100040.75;4206779;28;20232;-69
2022/06/23 11:07:47;;;;;;;3.73;1.90;;;;;;;25.02;34.21;100046.38;4226755;28;21237;-70
2022/06/23 11:10:19;;;;;;;2.60;1.47;;;;;;;25.51;34.82;100044.88;4229290;28;20315;-71
2022/06/23 11:13:09;;;;;;;7.13;1.90;;;;;;;25.78;33.59;100042.19;4218811;28;20247;-70
2022/06/23 11:16:06;;;;;;;3.33;1.87;;;;;;;25.40;34.17;100050.22;4212310;28;20284;-71
2022/06/23 11:18:52;;;;;;;7.03;1.70;;;;;;;24.95;34.70;100045.72;4216161;28;20242;-54
2022/06/23 11:21:31;;;;;;;4.80;1.90;;;;;;;24.73;35.30;100048.41;4216289;28;20266;-42
2022/06/23 11:24:05;;;;;;;7.63;1.87;;;;;;;24.88;35.56;100046.97;4242956;28;20604;-44
2022/06/23 11:27:09;;;;;;;2.93;1.60;;;;;;;25.20;35.58;100042.59;4243601;28;20295;-43
2022/06/23 11:30:07;;;;;;;5.90;1.83;;;;;;;25.34;35.06;100039.50;4244096;28;20310;-45
2022/06/23 11:32:59;;;;;;;7.43;1.67;;;;;;;25.46;37.18;100041.00;4240293;28;21564;-44
2022/06/23 11:35:37;;;;;;;6.37;2.03;;;;;;;25.65;36.15;100046.16;4232910;28;21091;-43
2022/06/23 11:38:07;;;;;;;2.90;1.80;;;;;;;25.39;34.76;100028.66;4230848;28;23491;-45
2022/06/23 11:41:05;;;;;;;3.03;1.80;;;;;;;25.43;35.26;100036.09;4258799;28;20648;-44
2022/06/23 11:44:06;;;;;;;3.80;1.50;;;;;;;25.47;35.75;100041.84;4237202;28;23008;-42
2022/06/23 11:47:00;;;;;;;4.67;1.60;;;;;;;25.45;34.21;100039.38;4242477;28;20228;-49
2022/06/23 11:49:37;;;;;;;3.13;1.37;;;;;;;25.29;33.29;100042.97;4198581;28;20277;-44
2022/06/23 11:52:13;;;;;;;2.73;1.33;;;;;;;25.37;32.66;100041.72;4199643;28;20236;-50
2022/06/23 11:55:19;;;;;;;2.90;1.50;;;;;;;25.65;33.28;100043.44;4258626;28;25517;-46
2022/06/23 11:58:01;;;;;;;3.57;1.43;;;;;;;25.60;31.91;100044.19;4231651;28;20591;-54
2022/06/23 12:00:33;;;;;;;5.23;1.77;;;;;;;24.90;30.94;100042.13;4228581;28;20284;-70
2022/06/23 12:03:30;;;;;;;5.33;1.63;;;;;;;24.59;33.21;100042.47;4203083;28;20902;-71
2022/06/23 12:06:10;;;;;;;11.07;2.10;;;;;;;24.70;33.64;100031.72;4211918;28;20252;-71
2022/06/23 12:08:46;;;;;;;4.70;1.97;;;;;;;24.77;32.90;100027.78;4225862;28;20285;-72
2022/06/23 12:11:12;;;;;;;4.67;1.53;;;;;;;24.89;32.89;100040.44;4234501;28;20316;-77
2022/06/23 12:13:40;;;;;;;4.37;1.60;;;;;;;25.15;33.55;100036.22;4226141;28;23180;-67
2022/06/23 12:16:06;;;;;;;2.07;1.20;;;;;;;25.52;32.76;100038.34;4203497;28;20298;-70
2022/06/23 12:18:59;;;;;;;4.00;1.70;;;;;;;25.48;33.48;100040.78;4197593;28;20317;-69
2022/06/23 12:21:39;;;;;;;4.10;1.60;;;;;;;25.87;32.05;100037.97;4209243;28;20354;-70
2022/06/23 12:24:14;;;;;;;4.43;1.60;;;;;;;26.21;32.35;100040.50;4201057;28;20291;-71
2022/06/23 12:26:49;;;;;;;4.47;1.40;;;;;;;25.87;30.87;100037.97;4226416;28;20231;-67
2022/06/23 12:29:20;;;;;;;5.67;1.47;;;;;;;25.84;30.87;100041.19;4191926;28;20235;-70
2022/06/23 12:31:58;;;;;;;6.13;1.67;;;;;;;25.49;31.72;100039.69;4208107;28;20244;-71
2022/06/23 12:34:39;;;;;;;3.37;1.43;;;;;;;24.90;33.33;100025.78;4200555;28;20446;-71